Time;durP1;ratioP1;P1;durP2;ratioP2;P2;SDS_P1;SDS_P2;PMS_P1;PMS_P2;Temp;Humidity;BMP_temperature;BMP_pressure;BME280_temperature;BME280_humidity;BME280_pressure;Samples;Min_cycle;Max_cycle;Signal;HPM_P1;HPM_P2
2022/07/25 00:01:53;;;;;;;2.27;2.17;;;18.90;99.90;;;;;;5049366;28;20437;-49
2022/07/25 00:04:22;;;;;;;4.20;3.17;;;18.60;99.90;;;;;;5049656;28;20480;-45
2022/07/25 00:06:49;;;;;;;6.90;2.30;;;18.60;99.90;;;;;;5048956;28;20460;-49
2022/07/25 00:09:17;;;;;;;5.57;2.33;;;18.70;99.90;;;;;;5049337;28;20434;-48
2022/07/25 00:11:44;;;;;;;2.97;2.70;;;18.70;99.90;;;;;;5050178;28;20904;-45
2022/07/25 00:14:11;;;;;;;3.20;2.90;;;18.70;99.90;;;;;;5051322;28;20501;-47
2022/07/25 00:16:38;;;;;;;2.60;2.07;;;18.70;99.90;;;;;;5049789;28;20457;-48
2022/07/25 00:19:06;;;;;;;2.63;2.43;;;18.70;99.90;;;;;;5056002;28;20433;-48
2022/07/25 00:21:33;;;;;;;2.93;2.47;;;18.50;99.90;;;;;;5048964;28;20437;-45
2022/07/25 00:24:00;;;;;;;2.20;2.00;;;18.50;99.90;;;;;;5050586;28;20412;-46
2022/07/25 00:26:28;;;;;;;4.30;2.90;;;18.50;99.90;;;;;;5051279;28;20491;-47
2022/07/25 00:28:55;;;;;;;2.70;2.40;;;18.50;99.90;;;;;;5045924;28;20436;-50
2022/07/25 00:31:23;;;;;;;3.13;2.53;;;18.60;99.90;;;;;;5046780;28;20679;-49
2022/07/25 00:33:50;;;;;;;3.23;2.67;;;18.50;99.90;;;;;;5056374;28;20494;-48
2022/07/25 00:36:18;;;;;;;2.43;1.70;;;18.50;99.90;;;;;;5050136;28;20679;-49
2022/07/25 00:38:45;;;;;;;2.57;1.93;;;18.70;99.90;;;;;;5049037;28;20429;-48
2022/07/25 00:41:12;;;;;;;2.43;2.23;;;18.60;99.90;;;;;;5048462;28;20492;-47
2022/07/25 00:43:44;;;;;;;5.50;2.33;;;18.50;99.90;;;;;;5049665;28;20542;-46
2022/07/25 00:46:17;;;;;;;2.40;2.00;;;18.50;99.90;;;;;;5052127;28;20615;-49
2022/07/25 00:48:46;;;;;;;5.13;2.10;;;18.30;99.90;;;;;;5049315;28;20449;-48
2022/07/25 00:51:15;;;;;;;3.20;2.30;;;18.40;99.90;;;;;;5054310;28;20480;-48
2022/07/25 00:53:44;;;;;;;2.17;1.87;;;18.30;99.90;;;;;;5048550;28;20516;-48
2022/07/25 00:56:11;;;;;;;2.90;2.33;;;18.20;99.90;;;;;;5048546;28;20450;-46
2022/07/25 00:58:38;;;;;;;2.33;2.13;;;18.30;99.90;;;;;;5048692;28;20514;-45
2022/07/25 01:01:06;;;;;;;2.57;2.37;;;18.30;99.90;;;;;;5048544;28;20487;-47
2022/07/25 01:03:33;;;;;;;3.73;2.37;;;18.40;99.90;;;;;;5050474;28;20432;-46
2022/07/25 01:06:01;;;;;;;2.03;1.93;;;18.40;99.90;;;;;;5048941;28;20627;-51
2022/07/25 01:08:28;;;;;;;4.23;2.50;;;18.20;99.90;;;;;;5048869;28;20433;-48
2022/07/25 01:10:56;;;;;;;3.87;2.13;;;18.00;99.90;;;;;;5048363;28;20481;-48
2022/07/25 01:13:23;;;;;;;2.80;2.33;;;17.90;99.90;;;;;;5048327;28;20437;-46
2022/07/25 01:15:50;;;;;;;2.57;2.37;;;17.90;99.90;;;;;;5048124;28;20412;-45
2022/07/25 01:18:18;;;;;;;3.60;2.73;;;17.90;99.90;;;;;;5048177;28;20440;-48
2022/07/25 01:20:45;;;;;;;3.30;2.43;;;17.90;99.90;;;;;;5050424;28;20415;-50
2022/07/25 01:23:12;;;;;;;2.23;2.03;;;17.90;99.90;;;;;;5051432;28;20672;-48
2022/07/25 01:25:39;;;;;;;3.07;2.50;;;17.90;99.90;;;;;;5047264;28;20455;-46
2022/07/25 01:28:06;;;;;;;2.73;2.53;;;17.90;99.90;;;;;;5048384;28;20429;-46
2022/07/25 01:30:34;;;;;;;2.90;2.70;;;17.80;99.90;;;;;;5052047;28;20747;-46
2022/07/25 01:33:01;;;;;;;2.50;2.30;;;17.80;99.90;;;;;;5052371;28;20442;-46
2022/07/25 01:35:32;;;;;;;2.47;2.27;;;17.70;99.90;;;;;;5053600;28;20445;-46
2022/07/25 01:37:59;;;;;;;2.20;1.90;;;17.60;99.90;;;;;;5051594;28;20439;-44
2022/07/25 01:40:27;;;;;;;4.63;2.13;;;17.60;99.90;;;;;;5052744;28;20437;-44
2022/07/25 01:42:54;;;;;;;2.57;2.37;;;17.70;99.90;;;;;;5051073;28;20438;-46
2022/07/25 01:45:21;;;;;;;4.13;2.60;;;17.80;99.90;;;;;;5051663;28;20511;-45
2022/07/25 01:47:49;;;;;;;2.17;1.97;;;17.70;99.90;;;;;;5055218;28;20522;-47
2022/07/25 01:50:17;;;;;;;3.10;2.83;;;17.70;99.90;;;;;;5031783;28;20448;-49
2022/07/25 01:52:44;;;;;;;6.90;2.27;;;17.80;99.90;;;;;;5054723;28;20476;-44
2022/07/25 01:55:11;;;;;;;2.30;2.10;;;17.90;99.90;;;;;;5049438;28;20720;-45
2022/07/25 01:57:39;;;;;;;2.40;2.20;;;17.90;99.90;;;;;;5054302;28;20456;-47
2022/07/25 02:00:15;;;;;;;2.77;2.50;;;17.80;99.90;;;;;;5047969;28;20429;-47
2022/07/25 02:02:44;;;;;;;3.90;2.30;;;17.60;99.90;;;;;;5054580;28;20511;-47
2022/07/25 02:05:13;;;;;;;3.13;2.07;;;17.50;99.90;;;;;;5055218;28;20635;-45
2022/07/25 02:07:40;;;;;;;4.90;2.50;;;17.30;99.90;;;;;;5048759;28;20443;-49
2022/07/25 02:10:08;;;;;;;2.30;1.90;;;17.40;99.90;;;;;;5054839;28;20662;-51
2022/07/25 02:12:36;;;;;;;6.57;2.90;;;17.40;99.90;;;;;;5047580;28;20481;-48
2022/07/25 02:15:03;;;;;;;2.67;2.47;;;17.40;99.90;;;;;;5054747;28;20446;-47
2022/07/25 02:17:30;;;;;;;2.87;2.67;;;17.40;99.90;;;;;;5046596;28;20470;-48
2022/07/25 02:19:58;;;;;;;2.40;2.20;;;17.30;99.90;;;;;;5054877;28;20424;-47
2022/07/25 02:22:25;;;;;;;2.80;2.60;;;17.40;99.90;;;;;;5050899;28;20805;-46
2022/07/25 02:24:52;;;;;;;3.53;2.87;;;17.30;99.90;;;;;;5056548;28;20437;-45
2022/07/25 02:27:20;;;;;;;2.73;2.20;;;17.30;99.90;;;;;;5051418;28;20823;-48
2022/07/25 02:29:47;;;;;;;3.83;3.50;;;17.10;99.90;;;;;;5051097;28;20779;-46
2022/07/25 02:32:14;;;;;;;3.00;2.17;;;17.20;99.90;;;;;;5052389;28;20481;-45
2022/07/25 02:34:41;;;;;;;1.93;1.83;;;17.10;99.90;;;;;;5052092;28;20438;-47
2022/07/25 02:37:09;;;;;;;2.73;2.47;;;17.20;99.90;;;;;;5051136;28;20460;-47
2022/07/25 02:39:36;;;;;;;3.17;2.87;;;17.30;99.90;;;;;;5052379;28;20439;-52
2022/07/25 02:42:04;;;;;;;2.10;1.90;;;17.00;99.90;;;;;;5050288;28;20761;-44
2022/07/25 02:44:31;;;;;;;3.13;2.80;;;16.90;99.90;;;;;;5050926;28;20446;-45
2022/07/25 02:46:59;;;;;;;3.67;2.40;;;16.80;99.90;;;;;;5050373;28;20465;-45
2022/07/25 02:49:26;;;;;;;2.23;2.00;;;16.70;99.90;;;;;;5052492;28;20783;-48
2022/07/25 02:51:53;;;;;;;3.63;2.50;;;16.70;99.90;;;;;;5050261;28;20469;-47
2022/07/25 02:54:20;;;;;;;4.33;2.33;;;16.70;99.90;;;;;;5051566;28;20428;-48
2022/07/25 02:56:47;;;;;;;2.87;2.67;;;16.60;99.90;;;;;;5045795;28;20501;-48
2022/07/25 02:59:14;;;;;;;3.40;3.10;;;16.50;99.90;;;;;;5050633;28;20456;-46
2022/07/25 03:01:41;;;;;;;2.30;2.10;;;16.40;99.90;;;;;;5050626;28;20440;-48
2022/07/25 03:04:09;;;;;;;2.80;2.60;;;16.50;99.90;;;;;;5050263;28;20438;-44
2022/07/25 03:06:36;;;;;;;3.50;2.40;;;16.50;99.90;;;;;;5052061;28;20785;-45
2022/07/25 03:09:04;;;;;;;2.60;2.30;;;16.70;99.90;;;;;;5050175;28;20445;-51
2022/07/25 03:11:33;;;;;;;16.73;3.57;;;16.50;99.90;;;;;;5051073;28;20480;-45
2022/07/25 03:14:00;;;;;;;3.77;3.10;;;16.60;99.90;;;;;;5050526;28;20403;-47
2022/07/25 03:16:28;;;;;;;3.43;2.90;;;16.60;99.90;;;;;;5050291;28;20447;-47
2022/07/25 03:18:55;;;;;;;4.20;3.43;;;16.60;99.90;;;;;;5050435;28;20755;-49
2022/07/25 03:21:22;;;;;;;2.77;2.57;;;16.60;99.90;;;;;;5050226;28;20660;-44
2022/07/25 03:23:49;;;;;;;2.87;2.60;;;16.60;99.90;;;;;;5055485;28;20449;-47
2022/07/25 03:26:19;;;;;;;3.30;3.00;;;16.60;99.90;;;;;;5028513;28;20457;-46
2022/07/25 03:28:46;;;;;;;2.63;2.43;;;16.60;99.90;;;;;;5047786;28;20519;-43
2022/07/25 03:31:13;;;;;;;3.50;2.90;;;16.60;99.90;;;;;;5053512;28;20435;-50
2022/07/25 03:33:40;;;;;;;3.80;3.50;;;16.60;99.90;;;;;;5046899;28;20475;-47
2022/07/25 03:36:09;;;;;;;5.20;2.83;;;16.50;99.90;;;;;;5052923;28;20456;-49
2022/07/25 03:38:36;;;;;;;4.57;3.60;;;16.60;99.90;;;;;;5045771;28;20767;-47
2022/07/25 03:41:04;;;;;;;3.27;3.00;;;16.60;99.90;;;;;;5052913;28;20730;-50
2022/07/25 03:43:32;;;;;;;3.83;3.03;;;16.60;99.90;;;;;;5045050;28;20455;-45
2022/07/25 03:45:59;;;;;;;2.90;2.53;;;16.90;99.90;;;;;;5052737;28;20622;-47
2022/07/25 03:48:26;;;;;;;3.67;2.87;;;17.30;99.90;;;;;;5052232;28;20447;-46
2022/07/25 03:50:55;;;;;;;11.03;3.03;;;17.70;99.90;;;;;;5047313;28;20432;-49
2022/07/25 03:53:23;;;;;;;3.10;2.90;;;18.10;99.90;;;;;;5051796;28;20478;-45
2022/07/25 03:55:50;;;;;;;3.43;3.00;;;18.30;99.90;;;;;;5054812;28;20453;-44
2022/07/25 03:58:17;;;;;;;3.20;3.00;;;18.30;99.90;;;;;;5059388;28;20605;-45
2022/07/25 04:00:46;;;;;;;4.63;2.90;;;18.20;99.90;;;;;;5044524;28;20776;-45
2022/07/25 04:03:14;;;;;;;4.67;2.87;;;18.00;99.90;;;;;;5052861;28;20579;-49
2022/07/25 04:05:41;;;;;;;3.47;2.77;;;17.90;99.90;;;;;;5049392;28;20827;-49
2022/07/25 04:08:13;;;;;;;5.10;2.47;;;17.90;99.90;;;;;;5050336;28;20639;-48
2022/07/25 04:10:40;;;;;;;5.90;2.50;;;17.90;99.90;;;;;;5049523;28;20414;-45
2022/07/25 04:13:08;;;;;;;2.87;2.30;;;18.00;99.90;;;;;;5048350;28;20442;-46
2022/07/25 04:15:35;;;;;;;4.27;2.90;;;18.10;99.90;;;;;;5050713;28;20594;-48
2022/07/25 04:18:03;;;;;;;3.20;2.23;;;18.10;99.90;;;;;;5046820;28;20437;-50
2022/07/25 04:20:36;;;;;;;3.23;2.93;;;18.20;99.90;;;;;;5050537;28;20460;-48
2022/07/25 04:23:03;;;;;;;2.47;2.27;;;18.30;99.90;;;;;;5051668;28;20500;-47
2022/07/25 04:25:30;;;;;;;2.73;2.50;;;18.40;99.90;;;;;;5049067;28;20448;-47
2022/07/25 04:27:58;;;;;;;2.80;2.43;;;18.50;99.90;;;;;;5048941;28;20560;-48
2022/07/25 04:30:25;;;;;;;2.57;2.37;;;18.70;99.90;;;;;;5049179;28;20417;-49
2022/07/25 04:32:52;;;;;;;3.30;2.83;;;18.70;99.90;;;;;;5050221;28;20488;-48
2022/07/25 04:35:20;;;;;;;4.40;2.57;;;18.60;99.90;;;;;;5049229;28;20457;-48
2022/07/25 04:37:48;;;;;;;4.80;3.13;;;18.50;99.90;;;;;;5048226;28;20796;-47
2022/07/25 04:40:15;;;;;;;4.47;3.40;;;18.40;99.90;;;;;;5048816;28;20691;-46
2022/07/25 04:42:43;;;;;;;3.10;2.80;;;18.60;99.90;;;;;;5048526;28;20437;-45
2022/07/25 04:45:10;;;;;;;2.83;2.53;;;18.60;99.90;;;;;;5049048;28;20487;-46
2022/07/25 04:47:38;;;;;;;4.23;2.40;;;18.80;99.90;;;;;;5050727;28;20475;-44
2022/07/25 04:50:06;;;;;;;3.10;2.87;;;18.80;99.90;;;;;;5047942;28;20416;-45
2022/07/25 04:52:34;;;;;;;3.00;2.80;;;18.90;99.90;;;;;;5050149;28;20862;-45
2022/07/25 04:55:02;;;;;;;2.67;2.43;;;19.00;99.90;;;;;;5047572;28;20452;-46
2022/07/25 04:57:31;;;;;;;3.20;2.90;;;19.00;99.90;;;;;;5049530;28;20803;-48
2022/07/25 04:59:59;;;;;;;6.40;2.90;;;19.10;99.90;;;;;;5047523;28;20433;-48
2022/07/25 05:02:26;;;;;;;4.40;3.63;;;19.20;99.90;;;;;;5048933;28;20520;-50
2022/07/25 05:04:54;;;;;;;3.53;3.00;;;19.50;99.90;;;;;;5051739;28;20465;-48
2022/07/25 05:07:21;;;;;;;2.37;2.17;;;19.80;99.90;;;;;;5045108;28;20439;-49
2022/07/25 05:09:48;;;;;;;2.40;2.20;;;19.80;99.90;;;;;;5051487;28;20407;-49
2022/07/25 05:12:15;;;;;;;2.83;2.50;;;19.60;99.90;;;;;;5044877;28;20473;-45
2022/07/25 05:14:43;;;;;;;2.90;2.30;;;19.60;99.90;;;;;;5050758;28;20638;-50
2022/07/25 05:17:10;;;;;;;4.13;3.53;;;19.60;99.90;;;;;;5045044;28;20451;-50
2022/07/25 05:19:38;;;;;;;6.33;2.80;;;19.60;99.90;;;;;;5050801;28;20448;-44
2022/07/25 05:22:06;;;;;;;3.10;2.40;;;19.80;99.90;;;;;;5050940;28;20437;-51
2022/07/25 05:24:34;;;;;;;3.23;2.70;;;19.80;99.90;;;;;;5055650;28;20436;-51
2022/07/25 05:27:03;;;;;;;2.43;2.23;;;20.00;99.90;;;;;;5046935;28;20638;-52
2022/07/25 05:29:31;;;;;;;5.03;3.47;;;20.00;99.90;;;;;;5051516;28;20411;-46
2022/07/25 05:31:58;;;;;;;2.53;2.33;;;20.10;99.90;;;;;;5048317;28;20503;-45
2022/07/25 05:34:25;;;;;;;2.57;2.03;;;20.10;99.90;;;;;;5045728;28;20407;-43
2022/07/25 05:36:52;;;;;;;3.10;2.90;;;20.10;99.90;;;;;;5050953;28;20630;-46
2022/07/25 05:39:20;;;;;;;3.20;2.73;;;20.30;99.90;;;;;;5049224;28;20441;-49
2022/07/25 05:41:47;;;;;;;2.73;2.53;;;20.40;99.90;;;;;;5044607;28;20415;-45
2022/07/25 05:44:14;;;;;;;3.63;3.00;;;20.60;99.90;;;;;;5051328;28;20426;-48
2022/07/25 05:46:42;;;;;;;9.73;2.40;;;20.80;99.90;;;;;;5050476;28;20445;-44
2022/07/25 05:49:09;;;;;;;2.50;2.30;;;21.10;99.90;;;;;;5050469;28;20480;-48
2022/07/25 05:51:37;;;;;;;2.80;2.57;;;21.30;99.90;;;;;;5050154;28;20418;-48
2022/07/25 05:54:04;;;;;;;2.43;2.23;;;21.40;99.90;;;;;;5051448;28;20531;-47
2022/07/25 05:56:32;;;;;;;2.47;2.20;;;21.40;99.90;;;;;;5049606;28;20511;-48
2022/07/25 05:58:59;;;;;;;2.60;2.40;;;21.50;99.90;;;;;;5051365;28;20410;-47
2022/07/25 06:01:27;;;;;;;2.33;2.13;;;21.70;99.90;;;;;;5050511;28;20491;-47
2022/07/25 06:03:54;;;;;;;3.50;2.00;;;21.90;99.90;;;;;;5051636;28;20448;-45
2022/07/25 06:06:21;;;;;;;2.47;2.23;;;22.10;99.90;;;;;;5048272;28;20453;-50
2022/07/25 06:08:49;;;;;;;4.17;2.27;;;22.20;99.90;;;;;;5050999;28;20403;-45
2022/07/25 06:11:17;;;;;;;3.87;3.00;;;22.40;99.90;;;;;;5049945;28;20431;-46
2022/07/25 06:13:45;;;;;;;2.63;2.40;;;22.80;99.90;;;;;;5051422;28;20502;-47
2022/07/25 06:16:12;;;;;;;2.80;2.30;;;23.00;99.90;;;;;;5052460;28;20490;-49
2022/07/25 06:18:39;;;;;;;2.20;2.10;;;23.30;99.90;;;;;;5053870;28;20457;-46
2022/07/25 06:21:06;;;;;;;2.67;2.30;;;23.70;99.90;;;;;;5054535;28;20802;-47
2022/07/25 06:23:33;;;;;;;3.03;2.80;;;24.10;99.90;;;;;;5053070;28;20631;-49
2022/07/25 06:26:01;;;;;;;2.90;2.50;;;24.60;99.90;;;;;;5049113;28;20527;-48
2022/07/25 06:28:28;;;;;;;2.23;1.90;;;25.00;99.90;;;;;;5052053;28;20420;-49
2022/07/25 06:30:56;;;;;;;2.50;1.83;;;25.00;99.90;;;;;;5054424;28;20730;-47
2022/07/25 06:33:23;;;;;;;9.80;2.50;;;25.40;99.90;;;;;;5047965;28;20481;-50
2022/07/25 06:35:50;;;;;;;3.93;2.50;;;25.20;99.90;;;;;;5054229;28;20441;-50
2022/07/25 06:38:18;;;;;;;6.50;2.83;;;25.00;99.90;;;;;;5047583;28;20415;-49
2022/07/25 06:40:45;;;;;;;10.63;2.37;;;25.50;99.90;;;;;;5054181;28;20400;-48
2022/07/25 06:43:12;;;;;;;2.67;2.47;;;26.40;99.90;;;;;;5047248;28;20413;-46
2022/07/25 06:45:41;;;;;;;2.60;2.13;;;26.70;99.90;;;;;;5053880;28;20439;-49
2022/07/25 06:48:09;;;;;;;2.30;2.10;;;26.90;99.90;;;;;;5048150;28;20453;-46
2022/07/25 06:50:36;;;;;;;3.33;2.80;;;27.40;99.90;;;;;;5047764;28;20446;-47
2022/07/25 06:53:03;;;;;;;2.30;2.10;;;28.20;99.90;;;;;;5053714;28;20796;-48
2022/07/25 06:55:31;;;;;;;3.30;2.70;;;29.00;98.10;;;;;;5047072;28;20440;-48
2022/07/25 06:57:58;;;;;;;2.77;2.13;;;29.80;95.40;;;;;;5053361;28;20460;-49
2022/07/25 07:00:25;;;;;;;1.90;1.80;;;30.40;94.30;;;;;;5045968;28;20426;-49
2022/07/25 07:03:00;;;;;;;3.20;1.77;;;31.30;92.20;;;;;;5054265;28;20444;-49
2022/07/25 07:05:30;;;;;;;3.33;2.20;;;31.90;89.40;;;;;;5054559;28;20443;-50
2022/07/25 07:07:58;;;;;;;2.93;2.40;;;32.60;86.60;;;;;;5049126;28;20460;-47
2022/07/25 07:10:26;;;;;;;4.27;2.73;;;33.80;80.00;;;;;;5053219;28;20447;-50
2022/07/25 07:13:09;;;;;;;2.33;2.13;;;34.30;75.70;;;;;;5047788;28;20502;-49
2022/07/25 07:15:38;;;;;;;1.80;1.70;;;34.60;73.50;;;;;;5056809;28;20464;-47
2022/07/25 07:18:06;;;;;;;3.83;2.43;;;33.60;72.60;;;;;;5048683;28;20432;-49
2022/07/25 07:20:34;;;;;;;2.93;2.63;;;32.90;74.50;;;;;;5052147;28;20437;-51
2022/07/25 07:23:01;;;;;;;5.57;2.40;;;34.80;71.30;;;;;;5051789;28;20437;-48
2022/07/25 07:25:29;;;;;;;3.47;2.10;;;36.50;64.90;;;;;;5050485;28;20632;-47
2022/07/25 07:27:57;;;;;;;2.23;2.03;;;37.20;62.00;;;;;;5049441;28;20485;-53
2022/07/25 07:30:25;;;;;;;4.03;2.20;;;36.90;59.50;;;;;;5033250;28;20536;-50
2022/07/25 07:33:12;;;;;;;2.27;2.00;;;36.70;59.30;;;;;;5049934;28;20707;-47
2022/07/25 07:35:43;;;;;;;2.73;2.53;;;37.20;57.70;;;;;;5052234;28;20438;-46
2022/07/25 07:38:10;;;;;;;1.80;1.70;;;36.90;57.80;;;;;;5029871;28;20437;-52
2022/07/25 07:40:38;;;;;;;3.60;2.17;;;37.40;56.70;;;;;;5051816;28;20433;-47
2022/07/25 07:43:05;;;;;;;1.83;1.70;;;37.50;56.40;;;;;;5047410;28;20465;-47
2022/07/25 07:45:32;;;;;;;1.70;1.60;;;36.80;56.70;;;;;;5051348;28;20433;-49
2022/07/25 07:48:00;;;;;;;2.60;1.83;;;36.10;56.60;;;;;;5052869;28;20468;-44
2022/07/25 07:50:27;;;;;;;1.73;1.60;;;34.30;58.60;;;;;;5046069;28;20497;-46
2022/07/25 07:52:57;;;;;;;4.50;2.20;;;34.80;59.70;;;;;;5053084;28;20476;-49
2022/07/25 07:55:42;;;;;;;3.17;2.17;;;35.30;58.30;;;;;;5045636;28;20764;-51
2022/07/25 07:58:14;;;;;;;1.83;1.67;;;36.20;57.60;;;;;;5052916;28;20500;-49
2022/07/25 08:00:43;;;;;;;4.50;2.20;;;36.40;56.90;;;;;;5044816;28;20643;-49
2022/07/25 08:03:11;;;;;;;8.53;2.07;;;35.90;57.40;;;;;;5053028;28;20855;-50
2022/07/25 08:05:41;;;;;;;3.23;2.10;;;37.30;55.60;;;;;;5050102;28;20675;-44
2022/07/25 08:08:12;;;;;;;2.23;1.80;;;37.90;53.30;;;;;;5049484;28;20432;-50
2022/07/25 08:10:44;;;;;;;2.00;1.90;;;37.20;54.40;;;;;;5050082;28;20643;-46
2022/07/25 08:13:13;;;;;;;2.20;1.70;;;36.70;54.10;;;;;;5048941;28;20477;-48
2022/07/25 08:15:42;;;;;;;2.50;1.40;;;37.30;53.50;;;;;;5049687;28;20447;-50
2022/07/25 08:18:10;;;;;;;2.10;1.77;;;35.90;53.90;;;;;;5047991;28;20611;-45
2022/07/25 08:20:45;;;;;;;1.93;1.40;;;36.70;53.50;;;;;;5049500;28;20484;-48
2022/07/25 08:23:12;;;;;;;1.43;1.33;;;36.50;53.30;;;;;;5027997;28;20457;-47
2022/07/25 08:25:40;;;;;;;3.53;1.70;;;37.20;51.70;;;;;;5049058;28;20457;-46
2022/07/25 08:28:08;;;;;;;1.83;1.73;;;37.10;51.80;;;;;;5048956;28;20769;-49
2022/07/25 08:30:37;;;;;;;2.00;1.50;;;37.80;51.50;;;;;;5051265;28;20512;-49
2022/07/25 08:33:09;;;;;;;1.63;1.53;;;39.20;49.20;;;;;;5048573;28;20843;-47
2022/07/25 08:35:36;;;;;;;2.10;1.90;;;40.10;47.80;;;;;;5051131;28;20425;-48
2022/07/25 08:38:04;;;;;;;2.87;1.47;;;41.90;47.10;;;;;;5047544;28;20516;-47
2022/07/25 08:40:32;;;;;;;1.53;1.43;;;41.40;44.20;;;;;;5050727;28;20493;-51
2022/07/25 08:43:00;;;;;;;2.70;1.70;;;39.80;45.30;;;;;;5048102;28;20513;-50
2022/07/25 08:45:28;;;;;;;1.43;1.33;;;39.70;46.30;;;;;;5050602;28;20442;-52
2022/07/25 08:47:55;;;;;;;0.90;0.90;;;40.10;46.40;;;;;;5052419;28;20571;-52
2022/07/25 08:50:25;;;;;;;1.53;1.43;;;41.10;44.70;;;;;;5046400;28;20509;-48
2022/07/25 08:52:53;;;;;;;2.17;1.80;;;41.00;43.90;;;;;;5052111;28;20468;-47
2022/07/25 08:55:43;;;;;;;1.60;1.50;;;40.60;43.90;;;;;;5045256;28;20429;-46
2022/07/25 08:58:14;;;;;;;1.30;1.20;;;40.50;44.10;;;;;;5052129;28;20507;-47
2022/07/25 09:00:41;;;;;;;1.60;1.50;;;40.70;43.80;;;;;;5044301;28;20436;-49
2022/07/25 09:03:09;;;;;;;1.70;1.60;;;40.00;44.00;;;;;;5034328;28;20468;-48
2022/07/25 09:05:37;;;;;;;1.60;1.50;;;41.40;42.90;;;;;;5049682;28;20463;-47
2022/07/25 09:08:12;;;;;;;5.33;2.23;;;42.00;43.10;;;;;;5048014;28;20436;-48
2022/07/25 09:10:46;;;;;;;1.90;1.80;;;44.20;40.60;;;;;;5049824;28;20491;-47
2022/07/25 09:13:14;;;;;;;2.10;2.00;;;43.70;40.80;;;;;;5048431;28;20547;-48
2022/07/25 09:15:50;;;;;;;3.50;1.50;;;43.80;40.70;;;;;;5049189;28;20581;-49
2022/07/25 09:18:22;;;;;;;1.53;1.43;;;42.90;40.30;;;;;;5030512;28;20428;-48
2022/07/25 09:20:58;;;;;;;1.70;1.60;;;41.80;40.90;;;;;;5031544;28;20610;-46
2022/07/25 09:23:27;;;;;;;1.33;1.23;;;40.40;41.80;;;;;;5052909;28;20492;-47
2022/07/25 09:26:11;;;;;;;1.43;1.33;;;40.80;42.40;;;;;;5046160;28;20508;-46
2022/07/25 09:28:41;;;;;;;1.60;1.50;;;41.70;42.30;;;;;;5050247;28;20505;-50
2022/07/25 09:31:09;;;;;;;1.60;1.50;;;41.90;40.80;;;;;;5051419;28;20471;-52
2022/07/25 09:33:48;;;;;;;1.40;1.30;;;41.30;41.60;;;;;;5045182;28;20481;-46
2022/07/25 09:36:15;;;;;;;2.27;1.47;;;39.70;42.60;;;;;;5051777;28;20662;-48
2022/07/25 09:38:58;;;;;;;1.83;1.73;;;37.50;44.90;;;;;;5044613;28;20706;-48
2022/07/25 09:41:39;;;;;;;4.73;1.50;;;35.50;48.60;;;;;;5054411;28;20581;-47
2022/07/25 09:44:21;;;;;;;1.67;1.57;;;35.00;49.00;;;;;;5046238;28;20433;-51
2022/07/25 09:46:49;;;;;;;1.80;1.70;;;34.50;50.20;;;;;;5048072;28;20481;-49
2022/07/25 09:49:18;;;;;;;1.63;1.53;;;33.90;51.00;;;;;;5049737;28;20819;-50
2022/07/25 09:51:46;;;;;;;2.13;1.93;;;33.30;52.50;;;;;;5050656;28;20441;-51
2022/07/25 09:54:14;;;;;;;1.83;1.73;;;33.10;52.70;;;;;;5052191;28;20651;-48
2022/07/25 09:56:41;;;;;;;5.03;2.13;;;32.90;53.10;;;;;;5055089;28;20492;-46
2022/07/25 09:59:09;;;;;;;1.97;1.87;;;32.50;53.60;;;;;;5051920;28;20433;-49
2022/07/25 10:01:43;;;;;;;1.30;1.20;;;32.10;53.90;;;;;;5051845;28;20499;-47
2022/07/25 10:04:20;;;;;;;2.00;1.90;;;31.80;54.80;;;;;;5034792;28;20460;-47
2022/07/25 10:07:08;;;;;;;2.03;1.63;;;31.60;54.80;;;;;;5052736;28;20453;-50
2022/07/25 10:09:50;;;;;;;1.50;1.40;;;31.30;55.50;;;;;;5054874;28;20488;-52
2022/07/25 10:12:19;;;;;;;3.40;1.93;;;31.40;55.50;;;;;;5049662;28;20433;-45
2022/07/25 10:15:07;;;;;;;5.10;1.80;;;31.30;55.70;;;;;;5051490;28;20529;-50
2022/07/25 10:17:36;;;;;;;1.60;1.50;;;31.50;55.80;;;;;;5047332;28;20471;-45
2022/07/25 10:20:05;;;;;;;1.60;1.50;;;31.60;55.50;;;;;;5054846;28;20425;-47
2022/07/25 10:22:40;;;;;;;4.10;1.60;;;31.80;54.60;;;;;;5051379;28;20439;-52
2022/07/25 10:25:24;;;;;;;1.50;1.40;;;31.80;55.10;;;;;;5052033;28;20505;-46
2022/07/25 10:27:59;;;;;;;5.17;2.57;;;32.00;54.80;;;;;;5051196;28;20487;-46
2022/07/25 10:30:38;;;;;;;1.77;1.67;;;32.10;54.90;;;;;;5034628;28;20694;-47
2022/07/25 10:33:14;;;;;;;1.70;1.40;;;32.10;54.60;;;;;;5050405;28;20441;-47
2022/07/25 10:35:42;;;;;;;1.97;1.87;;;31.60;54.40;;;;;;5053685;28;20743;-48
2022/07/25 10:38:10;;;;;;;1.77;1.60;;;31.30;55.50;;;;;;5048744;28;20780;-49
2022/07/25 10:40:42;;;;;;;3.43;1.73;;;31.30;54.50;;;;;;5053270;28;20810;-47
2022/07/25 10:43:21;;;;;;;1.60;1.50;;;31.50;54.80;;;;;;5051142;28;20433;-48
2022/07/25 10:45:55;;;;;;;1.73;1.40;;;31.70;54.30;;;;;;5048939;28;20527;-47
2022/07/25 10:48:30;;;;;;;1.33;1.20;;;31.50;54.10;;;;;;5054479;28;20498;-48
2022/07/25 10:51:07;;;;;;;2.90;1.50;;;31.40;54.30;;;;;;5050813;28;20428;-45
2022/07/25 10:53:47;;;;;;;2.10;1.60;;;31.40;54.90;;;;;;5046652;28;20477;-52
2022/07/25 10:56:16;;;;;;;1.60;1.50;;;31.10;54.90;;;;;;5046230;28;20476;-51
2022/07/25 10:58:58;;;;;;;1.73;1.63;;;31.10;54.80;;;;;;5047743;28;20511;-47
2022/07/25 11:01:37;;;;;;;7.80;1.73;;;31.30;54.70;;;;;;5044966;28;20460;-48
2022/07/25 11:04:13;;;;;;;3.10;1.67;;;31.50;54.80;;;;;;5026002;28;20437;-51
2022/07/25 11:06:41;;;;;;;2.03;1.87;;;31.60;54.30;;;;;;5050582;28;20483;-48
2022/07/25 11:09:14;;;;;;;1.37;1.27;;;31.80;54.50;;;;;;5037000;28;20642;-45
2022/07/25 11:11:48;;;;;;;3.60;1.73;;;31.90;53.80;;;;;;5013256;28;20505;-48
2022/07/25 11:14:19;;;;;;;2.23;2.03;;;32.00;53.90;;;;;;5041927;28;20469;-49
2022/07/25 11:16:49;;;;;;;2.00;1.70;;;32.00;53.60;;;;;;5041871;28;20424;-46
2022/07/25 11:19:27;;;;;;;3.07;1.63;;;32.00;53.70;;;;;;5042324;28;20434;-50
2022/07/25 11:21:57;;;;;;;1.50;1.40;;;32.20;53.90;;;;;;5042593;28;20429;-51
2022/07/25 11:24:36;;;;;;;1.50;1.40;;;32.20;53.40;;;;;;5046767;28;20479;-49
2022/07/25 11:27:04;;;;;;;2.10;1.90;;;32.20;53.60;;;;;;5045778;28;20485;-49
2022/07/25 11:29:38;;;;;;;1.80;1.70;;;32.10;54.00;;;;;;5046666;28;20433;-46
2022/07/25 11:32:11;;;;;;;1.90;1.70;;;32.00;53.80;;;;;;5048118;28;20433;-53
2022/07/25 11:34:42;;;;;;;1.63;1.53;;;32.00;53.70;;;;;;5042706;28;20655;-49
2022/07/25 11:37:11;;;;;;;2.00;1.90;;;32.00;54.30;;;;;;5042414;28;20450;-50
2022/07/25 11:39:43;;;;;;;1.40;1.30;;;32.10;54.00;;;;;;5042505;28;20625;-49
2022/07/25 11:42:16;;;;;;;1.80;1.60;;;32.30;53.50;;;;;;5025279;28;20442;-48
2022/07/25 11:44:44;;;;;;;1.50;1.40;;;32.30;52.50;;;;;;5045705;28;20472;-51
2022/07/25 11:47:29;;;;;;;2.07;1.87;;;32.20;53.00;;;;;;5044541;28;20633;-49
2022/07/25 11:49:59;;;;;;;4.27;1.80;;;32.20;52.70;;;;;;5046661;28;20635;-48
2022/07/25 11:52:36;;;;;;;1.63;1.53;;;32.00;53.00;;;;;;5032923;28;20689;-50
2022/07/25 11:55:12;;;;;;;1.80;1.70;;;31.90;53.80;;;;;;5041370;28;20516;-48
2022/07/25 11:57:45;;;;;;;1.70;1.60;;;31.90;53.60;;;;;;5048642;28;20755;-45
2022/07/25 12:00:20;;;;;;;1.60;1.50;;;32.00;53.70;;;;;;5045984;28;20741;-45
2022/07/25 12:02:48;;;;;;;1.40;1.30;;;32.20;54.30;;;;;;5046877;28;20536;-47
2022/07/25 12:05:19;;;;;;;1.33;1.20;;;32.30;53.00;;;;;;5044288;28;20496;-46
2022/07/25 12:07:51;;;;;;;3.87;1.73;;;32.20;53.60;;;;;;5045876;28;20834;-50
2022/07/25 12:10:31;;;;;;;1.87;1.77;;;32.20;53.40;;;;;;5023410;28;20445;-48
2022/07/25 12:13:03;;;;;;;2.10;1.50;;;32.20;53.50;;;;;;5048036;28;20432;-46
2022/07/25 12:15:34;;;;;;;1.27;1.17;;;32.00;52.70;;;;;;5044727;28;20477;-51
2022/07/25 12:18:02;;;;;;;1.80;1.70;;;31.90;53.60;;;;;;5057008;28;20709;-47
2022/07/25 12:20:41;;;;;;;1.80;1.70;;;31.90;53.90;;;;;;5046240;28;20863;-49
2022/07/25 12:23:10;;;;;;;1.70;1.60;;;31.90;53.40;;;;;;5046021;28;20502;-48
2022/07/25 12:25:40;;;;;;;6.50;2.57;;;31.80;54.30;;;;;;5028339;28;20504;-45
2022/07/25 12:28:11;;;;;;;3.33;1.70;;;32.00;53.80;;;;;;5034665;28;20635;-50
2022/07/25 12:30:40;;;;;;;1.73;1.63;;;32.00;54.20;;;;;;5048194;28;20487;-52
2022/07/25 12:33:08;;;;;;;1.50;1.40;;;32.20;54.60;;;;;;5020832;28;20445;-50
2022/07/25 12:35:38;;;;;;;2.27;1.90;;;32.30;53.70;;;;;;5057373;28;20476;-49
2022/07/25 12:38:05;;;;;;;1.50;1.40;;;32.40;53.20;;;;;;5037939;28;20449;-48
2022/07/25 12:40:33;;;;;;;1.60;1.50;;;32.20;52.40;;;;;;5029783;28;20433;-48
2022/07/25 12:43:00;;;;;;;1.37;1.27;;;32.00;52.80;;;;;;5067948;28;20535;-52
2022/07/25 12:45:27;;;;;;;2.43;1.90;;;32.20;53.60;;;;;;5049730;28;20452;-48
2022/07/25 12:47:55;;;;;;;1.50;1.40;;;32.20;53.40;;;;;;5059008;28;20460;-51
2022/07/25 12:50:24;;;;;;;1.70;1.40;;;32.10;53.20;;;;;;5053901;28;20467;-46
2022/07/25 12:52:52;;;;;;;1.60;1.50;;;32.20;53.60;;;;;;5051090;28;20548;-52
2022/07/25 12:55:20;;;;;;;1.50;1.40;;;32.00;53.70;;;;;;5055590;28;20532;-49
2022/07/25 12:57:48;;;;;;;1.87;1.47;;;32.10;54.00;;;;;;5063813;28;20453;-48